SHA weather

Shanghai Hongqiao International Airport
Shanghai, Shanghai Municipality, China

Public forecast

Using degrees Celsius for public forecast. Weather courtesy of forecast.io.

Current aviation weather report (METAR) for Shanghai Hongqiao International Airport

Retrieved 2020/01/22 10:30 UTC (1 minute ago):

ZSSS 221030Z 34003MPS 2300 -RA BR BKN006 09/09 Q1020 NOSIG

Aviation forecast (TAF) for Shanghai Hongqiao International Airport

Retrieved 2020/01/22 06:03 UTC (4 hours ago):

TAF ZSSS 220310Z 2206/2306 35004MPS 2300 -RA BR BKN005 TX11/2206Z TN08/2221Z BECMG 2210/2212 3000 BKN010 BECMG 2300/2302 BKN015